createdAt,value
2022-09-12T00:00:07.891Z,12.56
2022-09-12T00:01:17.217Z,12.67
2022-09-12T00:02:21.301Z,12.77
2022-09-12T00:03:25.652Z,12.77
2022-09-12T00:04:29.402Z,12.67
2022-09-12T00:05:32.182Z,12.72
2022-09-12T00:06:37.922Z,12.78
2022-09-12T00:07:40.817Z,12.78
2022-09-12T00:08:42.966Z,12.82
2022-09-12T00:09:44.979Z,12.89
2022-09-12T00:10:47.333Z,12.85
2022-09-12T00:11:49.714Z,12.82
2022-09-12T00:12:52.050Z,12.63
2022-09-12T00:13:59.867Z,12.63
2022-09-12T00:15:02.043Z,12.61
2022-09-12T00:16:05.051Z,12.68
2022-09-12T00:17:07.169Z,12.72
2022-09-12T00:18:15.673Z,12.76
2022-09-12T00:19:18.084Z,12.81
2022-09-12T00:20:20.742Z,12.74
2022-09-12T00:21:24.415Z,12.82
2022-09-12T00:22:26.931Z,12.91
2022-09-12T00:23:28.919Z,12.96
2022-09-12T00:24:30.830Z,13.01
2022-09-12T00:25:32.969Z,12.92
2022-09-12T00:26:34.995Z,12.88
2022-09-12T00:27:36.912Z,12.97
2022-09-12T00:28:40.843Z,13.03
2022-09-12T00:29:43.240Z,13.09
2022-09-12T00:30:48.117Z,13.09
2022-09-12T00:31:50.182Z,13.15
2022-09-12T00:32:52.195Z,13.14
2022-09-12T00:33:57.642Z,13.00
2022-09-12T00:34:59.599Z,13.00
2022-09-12T00:37:15.233Z,13.12
2022-09-12T00:38:17.090Z,13.07
2022-09-12T00:39:18.972Z,13.07
2022-09-12T00:40:22.236Z,13.11
2022-09-12T00:41:27.792Z,13.03
2022-09-12T00:42:29.743Z,13.06
2022-09-12T00:43:40.867Z,13.09
2022-09-12T00:44:46.401Z,13.08
2022-09-12T00:45:48.478Z,13.12
2022-09-12T00:47:03.737Z,13.14
2022-09-12T00:48:10.336Z,13.02
2022-09-12T00:49:24.984Z,13.01
2022-09-12T00:50:28.043Z,13.02
2022-09-12T00:51:33.485Z,12.97
2022-09-12T00:52:41.860Z,13.09
2022-09-12T00:53:45.938Z,12.92
2022-09-12T00:54:51.521Z,12.91
2022-09-12T00:55:55.165Z,12.92
2022-09-12T00:57:01.321Z,13.01
2022-09-12T00:58:12.875Z,13.03
2022-09-12T00:59:21.328Z,13.00
2022-09-12T01:00:26.399Z,12.91
2022-09-12T01:01:32.415Z,12.98
2022-09-12T01:02:32.857Z,13.01
2022-09-12T01:03:34.883Z,12.98
2022-09-12T01:04:40.216Z,12.99
2022-09-12T01:05:45.674Z,13.06
2022-09-12T01:06:50.409Z,13.08
2022-09-12T01:07:53.998Z,13.12
2022-09-12T01:08:57.986Z,13.08
2022-09-12T01:10:00.254Z,13.03
2022-09-12T01:11:03.769Z,12.99
2022-09-12T01:12:06.357Z,13.08
2022-09-12T01:13:10.914Z,13.20
2022-09-12T01:14:14.422Z,13.23
2022-09-12T01:15:16.570Z,13.33
2022-09-12T01:16:18.830Z,13.39
2022-09-12T01:17:23.848Z,13.40
2022-09-12T01:18:32.361Z,13.37
2022-09-12T01:19:40.944Z,13.42
2022-09-12T01:20:52.580Z,13.50
2022-09-12T01:22:29.367Z,13.53
2022-09-12T01:24:08.584Z,13.48
2022-09-12T01:25:41.748Z,13.33
2022-09-12T01:27:07.377Z,13.31
2022-09-12T01:28:37.357Z,13.32
2022-09-12T01:29:46.225Z,13.44
2022-09-12T01:31:10.909Z,13.26
2022-09-12T01:32:22.480Z,13.19
2022-09-12T01:33:37.642Z,13.06
2022-09-12T01:34:49.230Z,13.12
2022-09-12T01:36:06.546Z,13.08
2022-09-12T01:37:30.548Z,13.03
2022-09-12T01:38:36.128Z,13.01
2022-09-12T01:39:57.213Z,13.13
2022-09-12T01:41:15.179Z,13.20
2022-09-12T01:42:34.829Z,13.15
2022-09-12T01:43:43.393Z,13.12
2022-09-12T01:45:10.287Z,13.20
2022-09-12T01:46:25.181Z,13.31
2022-09-12T01:47:30.784Z,13.31
2022-09-12T01:48:36.561Z,13.24
2022-09-12T01:49:51.567Z,13.26
2022-09-12T01:51:03.192Z,13.25
2022-09-12T01:52:09.242Z,13.17
2022-09-12T01:53:26.638Z,13.08
2022-09-12T01:54:51.831Z,13.16
2022-09-12T01:56:09.109Z,13.22
2022-09-12T01:57:17.959Z,13.28
2022-09-12T01:58:26.606Z,13.34
2022-09-12T01:59:34.985Z,13.25
2022-09-12T02:00:47.130Z,13.24
2022-09-12T02:01:59.087Z,13.35
2022-09-12T02:03:10.556Z,13.35
2022-09-12T02:04:19.758Z,13.33
2022-09-12T02:05:40.686Z,13.31
2022-09-12T02:06:49.155Z,13.33
2022-09-12T02:08:03.974Z,13.26
2022-09-12T02:09:12.617Z,13.32
2022-09-12T02:10:22.771Z,13.33
2022-09-12T02:11:25.616Z,13.31
2022-09-12T02:12:31.545Z,13.28
2022-09-12T02:13:40.471Z,13.31
2022-09-12T02:14:53.787Z,13.36
2022-09-12T02:15:59.381Z,13.45
2022-09-12T02:17:08.189Z,13.45
2022-09-12T02:18:14.642Z,13.40
2022-09-12T02:19:22.761Z,13.45
2022-09-12T02:20:47.325Z,13.42
2022-09-12T02:21:37.918Z,13.42
2022-09-12T02:22:42.561Z,13.42
2022-09-12T02:23:48.212Z,13.30
2022-09-12T02:24:53.820Z,13.32
2022-09-12T02:25:59.231Z,13.25
2022-09-12T02:27:14.111Z,13.28
2022-09-12T02:28:19.685Z,13.32
2022-09-12T02:29:22.588Z,13.43
2022-09-12T02:30:27.226Z,13.38
2022-09-12T02:31:47.193Z,13.46
2022-09-12T02:33:01.283Z,13.41
2022-09-12T02:34:19.511Z,13.38
2022-09-12T02:35:40.669Z,13.28
2022-09-12T02:36:52.355Z,13.22
2022-09-12T02:38:04.283Z,13.26
2022-09-12T02:39:06.438Z,13.17
2022-09-12T02:40:10.314Z,13.19
2022-09-12T02:41:16.607Z,13.20
2022-09-12T02:42:18.654Z,13.17
2022-09-12T02:43:20.863Z,13.17
2022-09-12T02:44:24.576Z,13.24
2022-09-12T02:45:26.600Z,13.27
2022-09-12T02:46:38.368Z,13.32
2022-09-12T02:47:50.542Z,13.30
2022-09-12T02:48:53.416Z,13.26
2022-09-12T02:49:57.460Z,13.32
2022-09-12T02:51:00.855Z,13.41
2022-09-12T02:52:03.404Z,13.50
2022-09-12T02:53:07.317Z,13.62
2022-09-12T02:54:10.257Z,13.65
2022-09-12T02:55:14.601Z,13.64
2022-09-12T02:56:23.466Z,13.68
2022-09-12T02:57:26.161Z,13.76
2022-09-12T02:58:30.725Z,13.84
2022-09-12T02:59:33.344Z,13.85
2022-09-12T03:00:39.151Z,13.82
2022-09-12T03:02:12.285Z,13.83
2022-09-12T03:05:02.754Z,14.03
2022-09-12T03:06:20.085Z,13.85
2022-09-12T03:07:43.940Z,13.88
2022-09-12T03:08:55.505Z,13.95
2022-09-12T03:10:07.199Z,14.02
2022-09-12T03:11:15.883Z,13.99
2022-09-12T03:12:33.736Z,14.00
2022-09-12T03:13:54.482Z,14.02
2022-09-12T03:15:09.884Z,13.97
2022-09-12T03:16:25.315Z,14.01
2022-09-12T03:17:33.774Z,14.05
2022-09-12T03:18:54.645Z,14.11
2022-09-12T03:20:02.969Z,14.02
2022-09-12T03:21:34.679Z,14.05
2022-09-12T03:22:55.703Z,13.98
2022-09-12T03:24:16.890Z,13.81
2022-09-12T03:25:22.615Z,13.76
2022-09-12T03:26:36.659Z,13.85
2022-09-12T03:27:42.238Z,13.96
2022-09-12T03:28:46.934Z,14.02
2022-09-12T03:29:51.495Z,14.02
2022-09-12T03:30:54.384Z,14.04
2022-09-12T03:31:58.199Z,14.11
2022-09-12T03:33:00.074Z,14.12
2022-09-12T03:34:02.523Z,14.09
2022-09-12T03:35:05.532Z,13.96
2022-09-12T03:36:23.428Z,14.03
2022-09-12T03:37:25.305Z,14.09
2022-09-12T03:38:26.907Z,14.17
2022-09-12T03:39:29.170Z,14.24
2022-09-12T03:40:31.828Z,14.30
2022-09-12T03:41:33.567Z,14.30
2022-09-12T03:42:35.605Z,14.34
2022-09-12T03:43:37.638Z,14.38
2022-09-12T03:44:39.850Z,14.38
2022-09-12T03:45:42.043Z,14.38
2022-09-12T03:46:44.299Z,14.41
2022-09-12T03:47:46.258Z,14.39
2022-09-12T03:48:48.173Z,14.44
2022-09-12T03:49:50.160Z,14.43
2022-09-12T03:50:52.144Z,14.43
2022-09-12T03:51:54.484Z,14.44
2022-09-12T03:52:58.727Z,14.45
2022-09-12T03:54:00.716Z,14.48
2022-09-12T03:55:03.007Z,14.47
2022-09-12T03:56:07.367Z,14.47
2022-09-12T03:57:09.843Z,14.46
2022-09-12T03:58:12.237Z,14.45
2022-09-12T03:59:14.589Z,14.48
2022-09-12T04:00:19.882Z,14.50
2022-09-12T04:01:21.893Z,14.48
2022-09-12T04:02:23.977Z,14.49
2022-09-12T04:03:25.885Z,14.45
2022-09-12T04:04:28.317Z,14.43
2022-09-12T04:05:30.114Z,14.45
2022-09-12T04:06:32.829Z,14.47
2022-09-12T04:07:34.630Z,14.51
2022-09-12T04:08:37.560Z,14.51
2022-09-12T04:09:39.568Z,14.45
2022-09-12T04:10:41.753Z,14.40
2022-09-12T04:11:43.603Z,14.36
2022-09-12T04:12:45.608Z,14.37
2022-09-12T04:13:48.154Z,14.41
2022-09-12T04:14:50.298Z,14.44
2022-09-12T04:15:57.126Z,14.44
2022-09-12T04:17:00.236Z,14.45
2022-09-12T04:18:05.703Z,14.47
2022-09-12T04:19:06.597Z,14.47
2022-09-12T04:20:10.305Z,14.41
2022-09-12T04:21:15.988Z,14.45
2022-09-12T04:22:18.366Z,14.40
2022-09-12T04:23:20.743Z,14.43
2022-09-12T04:24:22.772Z,14.46
2022-09-12T04:25:24.698Z,14.48
2022-09-12T04:26:27.312Z,14.49
2022-09-12T04:27:29.233Z,14.47
2022-09-12T04:28:32.146Z,14.54
2022-09-12T04:29:34.617Z,14.62
2022-09-12T04:30:37.138Z,14.61
2022-09-12T04:31:39.052Z,14.59
2022-09-12T04:32:40.936Z,14.65
2022-09-12T04:33:44.485Z,14.69
2022-09-12T04:34:46.702Z,14.72
2022-09-12T04:35:49.202Z,14.66
2022-09-12T04:36:52.123Z,14.57
2022-09-12T04:37:53.938Z,14.47
2022-09-12T04:39:02.137Z,14.38
2022-09-12T04:40:04.902Z,14.29
2022-09-12T04:41:13.106Z,14.16
2022-09-12T04:42:15.455Z,14.10
2022-09-12T04:43:17.968Z,14.01
2022-09-12T04:44:20.122Z,13.90
2022-09-12T04:45:22.760Z,13.81
2022-09-12T04:46:29.046Z,13.58
2022-09-12T04:47:31.186Z,13.42
2022-09-12T04:48:33.177Z,13.50
2022-09-12T04:49:35.194Z,13.48
2022-09-12T04:50:38.492Z,13.41
2022-09-12T04:51:43.344Z,13.23
2022-09-12T04:52:51.089Z,13.15
2022-09-12T04:53:55.261Z,13.11
2022-09-12T04:54:57.192Z,13.19
2022-09-12T04:56:03.471Z,13.13
2022-09-12T04:57:06.284Z,12.96
2022-09-12T04:58:08.160Z,12.56
2022-09-12T04:59:12.113Z,12.20
2022-09-12T05:00:15.716Z,12.20
2022-09-12T05:01:20.405Z,12.12
2022-09-12T05:02:22.379Z,11.88
2022-09-12T05:03:24.798Z,11.55
2022-09-12T05:04:26.596Z,11.45
2022-09-12T05:05:28.937Z,11.31
2022-09-12T05:07:45.390Z,11.16
2022-09-12T05:08:47.503Z,10.97
2022-09-12T05:09:49.911Z,10.96
2022-09-12T05:10:51.996Z,11.08
2022-09-12T05:12:09.185Z,11.06
2022-09-12T05:12:57.625Z,11.07
2022-09-12T05:13:59.652Z,10.97
2022-09-12T05:15:02.216Z,10.91
2022-09-12T05:16:06.255Z,10.83
2022-09-12T05:17:08.221Z,10.95
2022-09-12T05:18:10.513Z,11.08
2022-09-12T05:19:12.342Z,11.07
2022-09-12T05:20:15.159Z,11.29
2022-09-12T05:21:19.957Z,11.29
2022-09-12T05:22:22.184Z,11.20
2022-09-12T05:23:24.312Z,11.07
2022-09-12T05:24:26.815Z,11.17
2022-09-12T05:25:28.608Z,11.19
2022-09-12T05:26:31.454Z,11.22
2022-09-12T05:27:33.834Z,11.21
2022-09-12T05:28:37.507Z,11.11
2022-09-12T05:29:40.095Z,11.10
2022-09-12T05:30:42.238Z,11.14
2022-09-12T05:31:44.519Z,11.18
2022-09-12T05:32:46.220Z,11.16
2022-09-12T05:33:50.033Z,11.09
2022-09-12T05:34:52.036Z,11.10
2022-09-12T05:35:53.974Z,11.16
2022-09-12T05:36:56.530Z,11.10
2022-09-12T05:37:59.009Z,11.12
2022-09-12T05:39:01.259Z,11.03
2022-09-12T05:40:04.107Z,11.07
2022-09-12T05:42:29.394Z,11.00
2022-09-12T05:43:34.112Z,10.99
2022-09-12T05:44:36.096Z,11.08
2022-09-12T05:45:38.646Z,11.05
2022-09-12T05:46:43.634Z,11.12
2022-09-12T05:47:46.503Z,11.22
2022-09-12T05:48:55.042Z,11.32
2022-09-12T05:49:53.800Z,11.29
2022-09-12T05:52:15.294Z,11.55
2022-09-12T05:53:17.050Z,11.51
2022-09-12T05:54:19.805Z,11.51
2022-09-12T05:55:21.905Z,11.50
2022-09-12T05:56:27.146Z,11.62
2022-09-12T05:57:29.296Z,11.63
2022-09-12T05:58:31.765Z,11.57
2022-09-12T05:59:34.255Z,11.60
2022-09-12T06:00:36.654Z,11.47
2022-09-12T06:01:39.606Z,11.29
2022-09-12T06:02:41.751Z,11.18
2022-09-12T06:03:46.736Z,11.12
2022-09-12T06:04:48.742Z,11.11
2022-09-12T06:05:50.803Z,11.12
2022-09-12T06:06:53.015Z,11.18
2022-09-12T06:07:55.245Z,11.12
2022-09-12T06:09:00.524Z,11.23
2022-09-12T06:10:03.941Z,11.24
2022-09-12T06:11:07.401Z,11.37
2022-09-12T06:12:09.686Z,11.43
2022-09-12T06:13:12.526Z,11.44
2022-09-12T06:14:18.961Z,11.46
2022-09-12T06:15:21.213Z,11.51
2022-09-12T06:16:28.042Z,11.51
2022-09-12T06:17:30.468Z,11.59
2022-09-12T06:18:32.498Z,11.66
2022-09-12T06:19:34.295Z,11.75
2022-09-12T06:20:36.231Z,11.79
2022-09-12T06:21:38.133Z,11.85
2022-09-12T06:22:40.332Z,11.74
2022-09-12T06:23:43.624Z,11.69
2022-09-12T06:24:45.666Z,11.56
2022-09-12T06:25:48.656Z,11.47
2022-09-12T06:26:50.796Z,11.49
2022-09-12T06:27:52.985Z,11.65
2022-09-12T06:28:56.933Z,11.82
2022-09-12T06:29:58.886Z,11.86
2022-09-12T06:31:04.219Z,11.78
2022-09-12T06:32:07.526Z,11.75
2022-09-12T06:33:10.394Z,11.69
2022-09-12T06:34:14.323Z,11.61
2022-09-12T06:35:16.428Z,11.64
2022-09-12T06:36:29.777Z,11.62
2022-09-12T06:37:32.376Z,11.96
2022-09-12T06:38:34.361Z,12.11
2022-09-12T06:39:36.402Z,12.06
2022-09-12T06:40:42.911Z,12.04
2022-09-12T06:41:45.612Z,12.06
2022-09-12T06:42:47.478Z,12.14
2022-09-12T06:43:52.471Z,12.16
2022-09-12T06:44:54.495Z,12.17
2022-09-12T06:45:56.903Z,12.18
2022-09-12T06:46:59.661Z,12.26
2022-09-12T06:48:02.725Z,12.25
2022-09-12T06:49:04.654Z,12.20
2022-09-12T06:50:08.064Z,12.18
2022-09-12T06:51:12.509Z,12.24
2022-09-12T06:52:14.489Z,12.30
2022-09-12T06:53:16.339Z,12.41
2022-09-12T06:54:18.951Z,12.56
2022-09-12T06:55:23.551Z,12.79
2022-09-12T06:56:27.200Z,12.99
2022-09-12T06:57:29.056Z,13.00
2022-09-12T06:58:31.530Z,13.26
2022-09-12T06:59:33.449Z,13.26
2022-09-12T07:00:35.926Z,13.36
2022-09-12T07:01:38.735Z,13.34
2022-09-12T07:02:40.812Z,13.22
2022-09-12T07:03:55.665Z,13.18
2022-09-12T07:04:57.685Z,13.10
2022-09-12T07:06:05.486Z,13.09
2022-09-12T07:07:07.295Z,13.14
2022-09-12T07:08:09.798Z,13.04
2022-09-12T07:09:14.209Z,13.07
2022-09-12T07:10:22.090Z,13.13
2022-09-12T07:11:23.934Z,13.06
2022-09-12T07:12:27.885Z,13.11
2022-09-12T07:13:29.720Z,13.23
2022-09-12T07:14:33.903Z,13.16
2022-09-12T07:15:35.724Z,13.26
2022-09-12T07:16:39.120Z,13.26
2022-09-12T07:17:41.118Z,13.31
2022-09-12T07:18:43.364Z,13.43
2022-09-12T07:19:45.242Z,13.46
2022-09-12T07:20:47.665Z,13.16
2022-09-12T07:21:49.914Z,13.21
2022-09-12T07:22:52.977Z,13.38
2022-09-12T07:23:55.594Z,13.45
2022-09-12T07:24:57.870Z,13.48
2022-09-12T07:26:00.634Z,13.48
2022-09-12T07:27:04.908Z,13.57
2022-09-12T07:28:06.834Z,13.64
2022-09-12T07:30:19.997Z,13.95
2022-09-12T07:31:24.607Z,13.99
2022-09-12T07:32:26.947Z,14.03
2022-09-12T07:33:29.326Z,14.20
2022-09-12T07:34:31.662Z,14.25
2022-09-12T07:35:33.893Z,14.16
2022-09-12T07:36:37.117Z,14.16
2022-09-12T07:37:39.626Z,14.28
2022-09-12T07:38:42.532Z,14.40
2022-09-12T07:39:44.972Z,14.13
2022-09-12T07:40:48.660Z,14.24
2022-09-12T07:41:50.982Z,14.35
2022-09-12T07:42:53.334Z,14.46
2022-09-12T07:43:57.697Z,14.43
2022-09-12T07:45:00.357Z,14.21
2022-09-12T07:46:18.557Z,14.37
2022-09-12T07:47:22.535Z,14.52
2022-09-12T07:48:29.160Z,14.75
2022-09-12T07:49:35.891Z,14.84
2022-09-12T07:50:45.134Z,14.14
2022-09-12T07:51:46.305Z,13.82
2022-09-12T07:52:51.171Z,13.86
2022-09-12T07:53:54.141Z,14.05
2022-09-12T07:54:56.076Z,14.28
2022-09-12T07:55:58.095Z,14.45
2022-09-12T07:57:01.041Z,14.51
2022-09-12T07:58:04.034Z,14.56
2022-09-12T07:59:07.509Z,14.52
2022-09-12T08:00:10.613Z,14.60
2022-09-12T08:01:17.891Z,14.57
2022-09-12T08:02:20.965Z,14.43
2022-09-12T08:03:22.982Z,14.51
2022-09-12T08:04:24.849Z,14.59
2022-09-12T08:05:26.817Z,14.64
2022-09-12T08:07:55.866Z,15.03
2022-09-12T08:08:58.949Z,14.96
2022-09-12T08:10:01.005Z,15.00
2022-09-12T08:11:06.549Z,14.59
2022-09-12T08:12:08.884Z,13.92
2022-09-12T08:13:11.017Z,13.84
2022-09-12T08:14:13.078Z,13.81
2022-09-12T08:15:15.049Z,13.83
2022-09-12T08:16:20.087Z,13.89
2022-09-12T08:17:22.122Z,13.86
2022-09-12T08:18:24.175Z,13.58
2022-09-12T08:19:26.276Z,13.48
2022-09-12T08:20:30.116Z,13.55
2022-09-12T08:21:33.556Z,13.68
2022-09-12T08:22:36.182Z,13.77
2022-09-12T08:23:38.638Z,13.85
2022-09-12T08:24:41.132Z,13.64
2022-09-12T08:25:43.180Z,13.76
2022-09-12T08:26:45.550Z,13.58
2022-09-12T08:27:47.906Z,13.57
2022-09-12T08:28:50.306Z,13.42
2022-09-12T08:29:52.320Z,13.55
2022-09-12T08:30:56.363Z,13.51
2022-09-12T08:31:59.078Z,13.56
2022-09-12T08:33:00.863Z,13.42
2022-09-12T08:34:04.603Z,13.37
2022-09-12T08:35:07.324Z,13.52
2022-09-12T08:36:15.499Z,13.70
2022-09-12T08:37:17.599Z,13.78
2022-09-12T08:38:25.745Z,13.72
2022-09-12T08:39:27.688Z,13.76
2022-09-12T08:40:29.828Z,13.85
2022-09-12T08:41:40.970Z,13.99
2022-09-12T08:42:52.895Z,13.97
2022-09-12T08:44:17.104Z,13.87
2022-09-12T08:47:03.070Z,13.83
2022-09-12T08:48:07.722Z,13.72
2022-09-12T08:49:13.869Z,13.82
2022-09-12T08:50:20.064Z,13.89
2022-09-12T08:51:23.820Z,13.83
2022-09-12T08:52:30.042Z,13.68
2022-09-12T08:53:35.850Z,13.62
2022-09-12T08:54:40.591Z,13.55
2022-09-12T08:55:45.322Z,13.44
2022-09-12T08:56:48.068Z,13.43
2022-09-12T08:57:51.054Z,13.47
2022-09-12T08:58:52.997Z,13.55
2022-09-12T08:59:55.921Z,13.55
2022-09-12T09:01:02.140Z,13.69
2022-09-12T09:02:06.815Z,13.82
2022-09-12T09:03:18.675Z,13.97
2022-09-12T09:05:43.508Z,13.98
2022-09-12T09:06:57.163Z,13.93
2022-09-12T09:08:24.299Z,13.93
2022-09-12T09:09:44.889Z,13.86
2022-09-12T09:11:06.310Z,14.12
2022-09-12T09:12:28.024Z,14.37
2022-09-12T09:13:39.670Z,14.55
2022-09-12T09:15:02.061Z,14.71
2022-09-12T09:16:07.965Z,14.85
2022-09-12T09:17:25.741Z,15.04
2022-09-12T09:18:31.732Z,14.98
2022-09-12T09:19:40.340Z,15.09
2022-09-12T09:20:46.021Z,15.17
2022-09-12T09:21:57.966Z,15.24
2022-09-12T09:23:24.637Z,15.33
2022-09-12T09:24:37.428Z,15.35
2022-09-12T09:25:45.757Z,15.37
2022-09-12T09:26:54.442Z,15.44
2022-09-12T09:28:03.225Z,15.49
2022-09-12T09:30:20.897Z,15.68
2022-09-12T09:31:25.150Z,15.57
2022-09-12T09:32:33.739Z,15.60
2022-09-12T09:33:38.136Z,15.60
2022-09-12T09:34:40.187Z,15.59
2022-09-12T09:35:47.532Z,15.52
2022-09-12T09:36:53.258Z,15.34
2022-09-12T09:38:04.691Z,15.26
2022-09-12T09:39:33.364Z,15.25
2022-09-12T09:40:40.123Z,15.21
2022-09-12T09:41:55.240Z,15.27
2022-09-12T09:43:20.433Z,15.28
2022-09-12T09:44:22.977Z,15.40
2022-09-12T09:45:25.618Z,15.61
2022-09-12T09:46:28.655Z,15.79
2022-09-12T09:47:30.779Z,16.10
2022-09-12T09:48:38.501Z,16.10
2022-09-12T09:49:41.246Z,16.00
2022-09-12T09:50:45.983Z,16.12
2022-09-12T09:51:48.414Z,16.26
2022-09-12T09:52:52.170Z,16.36
2022-09-12T09:53:58.848Z,16.47
2022-09-12T09:55:01.494Z,16.58
2022-09-12T09:56:07.219Z,16.56
2022-09-12T09:57:32.669Z,16.58
2022-09-12T09:58:36.295Z,16.63
2022-09-12T09:59:39.048Z,16.60
2022-09-12T10:00:43.106Z,16.67
2022-09-12T10:01:56.800Z,16.73
2022-09-12T10:03:27.009Z,16.80
2022-09-12T10:04:40.544Z,16.81
2022-09-12T10:05:53.886Z,16.64
2022-09-12T10:07:02.047Z,16.66
2022-09-12T10:08:07.140Z,16.66
2022-09-12T10:09:15.769Z,16.66
2022-09-12T10:10:19.816Z,16.68
2022-09-12T10:11:22.242Z,16.68
2022-09-12T10:12:28.639Z,16.71
2022-09-12T10:13:52.350Z,16.77
2022-09-12T10:15:00.852Z,16.85
2022-09-12T10:16:06.581Z,16.89
2022-09-12T10:17:34.323Z,16.97
2022-09-12T10:18:38.710Z,16.99
2022-09-12T10:19:41.242Z,17.05
2022-09-12T10:20:45.062Z,17.13
2022-09-12T10:21:50.688Z,17.18
2022-09-12T10:22:53.365Z,17.27
2022-09-12T10:24:07.198Z,17.31
2022-09-12T10:25:13.551Z,17.36
2022-09-12T10:26:20.260Z,17.42
2022-09-12T10:27:25.410Z,17.53
2022-09-12T10:29:48.070Z,17.72
2022-09-12T10:30:52.900Z,17.64
2022-09-12T10:31:58.440Z,17.78
2022-09-12T10:33:10.678Z,17.82
2022-09-12T10:34:29.282Z,17.87
2022-09-12T10:35:34.909Z,17.99
2022-09-12T10:36:39.773Z,17.96
2022-09-12T10:37:48.363Z,18.03
2022-09-12T10:38:58.458Z,18.07
2022-09-12T10:40:03.748Z,18.09
2022-09-12T10:41:08.205Z,18.13
2022-09-12T10:42:15.116Z,18.06
2022-09-12T10:43:20.019Z,18.04
2022-09-12T10:44:29.767Z,17.95
2022-09-12T10:45:38.040Z,17.83
2022-09-12T10:46:40.904Z,17.82
2022-09-12T10:47:43.434Z,17.78
2022-09-12T10:48:47.965Z,17.79
2022-09-12T10:49:49.946Z,17.75
2022-09-12T10:50:52.086Z,17.77
2022-09-12T10:51:55.571Z,17.80
2022-09-12T10:53:23.786Z,17.75
2022-09-12T10:54:27.457Z,17.75
2022-09-12T10:55:33.250Z,17.67
2022-09-12T10:56:48.020Z,17.64
2022-09-12T10:58:17.493Z,17.58
2022-09-12T10:59:29.692Z,17.50
2022-09-12T11:00:35.799Z,17.32
2022-09-12T11:01:51.126Z,17.25
2022-09-12T11:03:25.429Z,17.13
2022-09-12T11:04:43.759Z,17.01
2022-09-12T11:06:00.113Z,16.84
2022-09-12T11:07:12.745Z,16.72
2022-09-12T11:08:30.296Z,16.65
2022-09-12T11:10:09.983Z,16.60
2022-09-12T11:11:15.719Z,16.47
2022-09-12T11:12:24.351Z,16.36
2022-09-12T11:13:44.816Z,16.27
2022-09-12T11:15:02.757Z,16.21
2022-09-12T11:16:26.144Z,16.19
2022-09-12T11:17:37.718Z,16.12
2022-09-12T11:19:01.186Z,16.09
2022-09-12T11:20:27.676Z,16.02
2022-09-12T11:21:33.294Z,15.95
2022-09-12T11:23:00.435Z,15.92
2022-09-12T11:24:14.858Z,15.90
2022-09-12T11:25:27.173Z,15.86
2022-09-12T11:26:53.629Z,15.84
2022-09-12T11:28:17.391Z,15.80
2022-09-12T11:29:40.358Z,15.75
2022-09-12T11:30:58.429Z,15.73
2022-09-12T11:32:34.593Z,15.65
2022-09-12T11:33:45.917Z,15.54
2022-09-12T11:34:51.804Z,15.53
2022-09-12T11:35:55.734Z,15.46
2022-09-12T11:37:21.616Z,15.46
2022-09-12T11:38:36.407Z,15.48
2022-09-12T11:39:40.019Z,15.53
2022-09-12T11:40:52.431Z,15.55
2022-09-12T11:41:58.542Z,15.49
2022-09-12T11:43:05.153Z,15.52
2022-09-12T11:44:16.831Z,15.54
2022-09-12T11:45:37.833Z,15.55
2022-09-12T11:46:43.240Z,15.60
2022-09-12T11:47:48.854Z,15.05
2022-09-12T11:49:00.318Z,14.95
2022-09-12T11:51:19.862Z,15.28
2022-09-12T11:52:29.009Z,15.20
2022-09-12T11:53:35.229Z,15.20
2022-09-12T11:54:53.552Z,15.10
2022-09-12T11:56:09.877Z,15.04
2022-09-12T11:57:28.508Z,14.88
2022-09-12T11:58:31.623Z,14.51
2022-09-12T11:59:53.683Z,14.48
2022-09-12T12:01:05.575Z,14.51
2022-09-12T12:02:14.166Z,14.52
2022-09-12T12:03:32.011Z,14.35
2022-09-12T12:04:40.516Z,14.31
2022-09-12T12:06:15.260Z,14.39
2022-09-12T12:07:17.326Z,14.45
2022-09-12T12:08:22.885Z,14.37
2022-09-12T12:09:24.925Z,14.37
2022-09-12T12:10:36.980Z,14.36
2022-09-12T12:11:43.079Z,14.37
2022-09-12T12:12:46.054Z,14.43
2022-09-12T12:13:57.541Z,14.34
2022-09-12T12:15:01.737Z,14.33
2022-09-12T12:16:29.824Z,14.32
2022-09-12T12:17:34.414Z,14.29
2022-09-12T12:18:38.837Z,14.16
2022-09-12T12:19:44.489Z,14.24
2022-09-12T12:20:47.093Z,14.26
2022-09-12T12:21:51.005Z,14.33
2022-09-12T12:22:54.792Z,14.17
2022-09-12T12:24:25.254Z,14.20
2022-09-12T12:25:43.185Z,14.26
2022-09-12T12:26:52.186Z,14.32
2022-09-12T12:27:57.533Z,14.34
2022-09-12T12:28:59.992Z,14.48
2022-09-12T12:30:02.226Z,14.52
2022-09-12T12:31:04.817Z,14.36
2022-09-12T12:32:10.712Z,14.36
2022-09-12T12:33:23.030Z,14.30
2022-09-12T12:34:38.766Z,14.33
2022-09-12T12:35:59.874Z,14.36
2022-09-12T12:37:26.033Z,14.07
2022-09-12T12:38:32.715Z,14.11
2022-09-12T12:39:41.761Z,14.26
2022-09-12T12:40:44.171Z,14.09
2022-09-12T12:41:46.446Z,14.03
2022-09-12T12:42:57.897Z,13.98
2022-09-12T12:44:03.711Z,14.05
2022-09-12T12:45:19.451Z,14.11
2022-09-12T12:46:25.924Z,13.86
2022-09-12T12:47:33.866Z,13.55
2022-09-12T12:48:56.764Z,13.60
2022-09-12T12:50:02.333Z,13.46
2022-09-12T12:51:39.120Z,13.56
2022-09-12T12:53:00.577Z,13.61
2022-09-12T12:54:09.778Z,13.48
2022-09-12T12:55:16.051Z,13.48
2022-09-12T12:56:31.580Z,13.45
2022-09-12T12:57:55.864Z,13.37
2022-09-12T12:59:04.126Z,13.24
2022-09-12T13:00:22.302Z,13.09
2022-09-12T13:01:25.663Z,13.14
2022-09-12T13:02:40.673Z,13.25
2022-09-12T13:04:02.098Z,13.33
2022-09-12T13:06:42.034Z,13.34
2022-09-12T13:07:44.688Z,13.23
2022-09-12T13:08:50.602Z,13.31
2022-09-12T13:09:54.753Z,13.32
2022-09-12T13:11:03.425Z,13.32
2022-09-12T13:12:09.075Z,13.31
2022-09-12T13:13:15.668Z,13.33
2022-09-12T13:14:44.321Z,13.22
2022-09-12T13:15:49.587Z,13.21
2022-09-12T13:16:58.627Z,13.26
2022-09-12T13:18:03.451Z,13.25
2022-09-12T13:19:18.217Z,13.26
2022-09-12T13:20:29.197Z,13.15
2022-09-12T13:21:31.733Z,13.00
2022-09-12T13:22:40.686Z,12.96
2022-09-12T13:23:43.272Z,12.96
2022-09-12T13:24:47.596Z,12.97
2022-09-12T13:25:55.895Z,13.04
2022-09-12T13:26:58.739Z,12.98
2022-09-12T13:28:04.869Z,12.92
2022-09-12T13:29:16.107Z,12.91
2022-09-12T13:30:19.987Z,12.82
2022-09-12T13:31:27.160Z,12.92
2022-09-12T13:32:31.051Z,13.00
2022-09-12T13:33:48.934Z,13.07
2022-09-12T13:34:55.680Z,13.11
2022-09-12T13:36:17.958Z,13.17
2022-09-12T13:37:27.213Z,13.29
2022-09-12T13:38:56.622Z,13.36
2022-09-12T13:40:24.925Z,13.43
2022-09-12T13:42:01.079Z,13.38
2022-09-12T13:43:12.498Z,13.51
2022-09-12T13:44:18.129Z,13.43
2022-09-12T13:45:25.181Z,13.35
2022-09-12T13:46:31.094Z,13.18
2022-09-12T13:47:43.342Z,13.10
2022-09-12T13:48:46.258Z,13.12
2022-09-12T13:49:50.579Z,13.13
2022-09-12T13:50:55.806Z,13.12
2022-09-12T13:52:02.447Z,13.18
2022-09-12T13:53:14.500Z,13.13
2022-09-12T13:54:22.527Z,13.25
2022-09-12T13:55:35.281Z,13.30
2022-09-12T13:56:49.306Z,13.33
2022-09-12T13:58:03.746Z,13.42
2022-09-12T13:59:09.899Z,13.49
2022-09-12T14:00:16.262Z,13.62
2022-09-12T14:01:19.406Z,13.52
2022-09-12T14:02:24.016Z,13.43
2022-09-12T14:03:36.072Z,13.37
2022-09-12T14:04:37.999Z,13.44
2022-09-12T14:05:42.376Z,13.51
2022-09-12T14:06:52.405Z,13.62
2022-09-12T14:08:02.085Z,13.68
2022-09-12T14:09:08.495Z,13.85
2022-09-12T14:10:17.641Z,13.86
2022-09-12T14:12:38.883Z,14.08
2022-09-12T14:13:41.392Z,14.04
2022-09-12T14:14:46.963Z,14.10
2022-09-12T14:15:52.236Z,14.07
2022-09-12T14:16:54.629Z,14.07
2022-09-12T14:18:00.208Z,14.06
2022-09-12T14:19:02.955Z,13.97
2022-09-12T14:20:08.916Z,14.01
2022-09-12T14:21:29.696Z,13.89
2022-09-12T14:22:33.580Z,13.90
2022-09-12T14:23:41.711Z,13.76
2022-09-12T14:24:48.270Z,13.80
2022-09-12T14:25:50.647Z,13.82
2022-09-12T14:26:56.091Z,13.80
2022-09-12T14:27:58.744Z,13.87
2022-09-12T14:29:04.340Z,13.93
2022-09-12T14:30:11.179Z,13.95
2022-09-12T14:31:31.606Z,13.92
2022-09-12T14:32:34.243Z,13.84
2022-09-12T14:33:53.277Z,13.89
2022-09-12T14:35:20.610Z,13.85
2022-09-12T14:36:28.508Z,13.85
2022-09-12T14:37:31.230Z,13.78
2022-09-12T14:38:42.581Z,13.60
2022-09-12T14:39:45.213Z,13.61
2022-09-12T14:40:53.805Z,13.67
2022-09-12T14:42:16.517Z,13.65
2022-09-12T14:43:28.067Z,13.57
2022-09-12T14:44:32.250Z,13.57
2022-09-12T14:45:34.526Z,13.64